Manitou Springs, Colorado
Current Conditions -  °F | °C
As of 7:56 AM on Thursday 23 Oct 2014 (Local Time) from KCWN Reporting Station
Clear Clear  
Wind Chill: 52°   Ceiling: Unl
Heat Index: 52°   Visibility: 10mi
Dew Point: 31°   Wind: 2mph
Humidity: 45%   Direction: 300°WNW
Pressure: 30.23"   Gusts: NA
Location:  38.86°N, 104.92°W
Report Text: KCWN 231356Z AUTO 30002KT 10SM CLR 11/M01 A3023 RMK AO2 SLP189 T01101007
Loading
Personal Weather Stations






























Interactive Weather Map New forecast layout! Learn more

10-Day Weather Forecast

Advertisements
Track Severe Weather on mobile